createdAt,value
2022-11-20T00:02:16.935Z,9.65
2022-11-20T00:04:49.891Z,8.75
2022-11-20T00:07:22.910Z,9.65
2022-11-20T00:09:55.674Z,9.52
2022-11-20T00:12:29.917Z,10.07
2022-11-20T00:15:02.725Z,9.05
2022-11-20T00:17:35.455Z,9.65
2022-11-20T00:20:09.002Z,8.68
2022-11-20T00:22:41.966Z,9.13
2022-11-20T00:27:48.741Z,7.30
2022-11-20T00:30:21.666Z,9.05
2022-11-20T00:35:27.341Z,9.38
2022-11-20T00:38:00.165Z,8.60
2022-11-20T00:40:33.143Z,8.95
2022-11-20T00:45:41.462Z,8.88
2022-11-20T00:48:14.242Z,8.10
2022-11-20T00:50:47.206Z,9.50
2022-11-20T00:55:58.039Z,9.48
2022-11-20T00:58:34.800Z,9.18
2022-11-20T01:01:09.449Z,9.68
2022-11-20T01:03:44.022Z,8.95
2022-11-20T01:06:18.887Z,8.52
2022-11-20T01:08:52.997Z,9.48
2022-11-20T01:11:27.902Z,8.43
2022-11-20T01:14:03.124Z,8.70
2022-11-20T01:16:38.452Z,9.48
2022-11-20T01:19:17.524Z,8.55
2022-11-20T01:21:53.327Z,8.98
2022-11-20T01:24:26.101Z,8.63
2022-11-20T01:26:59.253Z,8.38
2022-11-20T01:29:33.457Z,8.55
2022-11-20T01:32:06.534Z,8.05
2022-11-20T01:34:39.315Z,9.00
2022-11-20T01:37:12.054Z,8.77
2022-11-20T01:39:45.222Z,9.15
2022-11-20T01:42:35.776Z,8.02
2022-11-20T01:45:41.687Z,8.82
2022-11-20T01:48:16.197Z,7.85
2022-11-20T01:50:49.133Z,8.45
2022-11-20T01:56:01.567Z,8.77
2022-11-20T01:58:40.116Z,9.25
2022-11-20T02:01:13.583Z,9.38
2022-11-20T02:03:49.248Z,9.15
2022-11-20T02:06:26.494Z,8.50
2022-11-20T02:08:59.385Z,8.40
2022-11-20T02:11:32.605Z,8.93
2022-11-20T02:14:04.968Z,8.52
2022-11-20T02:16:40.521Z,8.32
2022-11-20T02:19:24.105Z,7.65
2022-11-20T02:22:04.082Z,8.23
2022-11-20T02:24:38.379Z,9.20
2022-11-20T02:27:13.907Z,7.53
2022-11-20T02:29:51.547Z,8.77
2022-11-20T02:32:27.948Z,7.78
2022-11-20T02:35:08.214Z,8.50
2022-11-20T02:37:42.389Z,8.48
2022-11-20T02:40:17.301Z,8.07
2022-11-20T02:42:53.798Z,9.00
2022-11-20T02:45:26.985Z,8.02
2022-11-20T02:47:59.720Z,8.43
2022-11-20T02:50:32.750Z,8.55
2022-11-20T02:53:05.465Z,8.80
2022-11-20T02:55:39.629Z,7.72
2022-11-20T02:58:12.791Z,8.57
2022-11-20T03:00:47.605Z,8.40
2022-11-20T03:03:20.411Z,8.40
2022-11-20T03:05:53.167Z,8.00
2022-11-20T03:11:04.557Z,7.82
2022-11-20T03:13:37.721Z,8.07
2022-11-20T03:16:12.511Z,7.85
2022-11-20T03:18:45.673Z,8.18
2022-11-20T03:21:18.571Z,8.55
2022-11-20T03:23:51.529Z,8.30
2022-11-20T03:26:27.620Z,8.95
2022-11-20T03:29:02.330Z,8.57
2022-11-20T03:31:37.152Z,8.48
2022-11-20T03:34:11.745Z,8.88
2022-11-20T03:36:45.010Z,8.45
2022-11-20T03:39:18.855Z,8.50
2022-11-20T03:41:53.135Z,8.02
2022-11-20T03:44:26.057Z,9.07
2022-11-20T03:49:31.390Z,8.15
2022-11-20T03:52:04.080Z,8.38
2022-11-20T03:54:37.073Z,8.13
2022-11-20T03:59:43.948Z,8.18
2022-11-20T04:04:49.810Z,8.95
2022-11-20T04:07:22.531Z,8.60
2022-11-20T04:09:55.284Z,8.45
2022-11-20T04:12:29.333Z,9.50
2022-11-20T04:15:02.898Z,8.50
2022-11-20T04:17:35.860Z,9.23
2022-11-20T04:22:41.839Z,8.63
2022-11-20T04:27:48.974Z,7.80
2022-11-20T04:30:21.756Z,9.07
2022-11-20T04:32:54.905Z,8.88
2022-11-20T04:35:27.675Z,7.85
2022-11-20T04:38:00.392Z,8.77
2022-11-20T04:40:33.295Z,8.40
2022-11-20T04:45:40.071Z,8.55
2022-11-20T04:48:12.869Z,8.43
2022-11-20T04:50:45.668Z,8.98
2022-11-20T04:53:18.482Z,7.50
2022-11-20T04:55:51.714Z,8.88
2022-11-20T04:58:25.908Z,8.43
2022-11-20T05:01:04.288Z,8.18
2022-11-20T05:03:42.123Z,8.32
2022-11-20T05:06:16.962Z,9.55
2022-11-20T05:08:50.075Z,9.25
2022-11-20T05:11:23.590Z,8.73
2022-11-20T05:14:01.051Z,8.80
2022-11-20T05:16:36.478Z,9.02
2022-11-20T05:19:09.574Z,8.55
2022-11-20T05:21:42.290Z,8.13
2022-11-20T05:24:15.060Z,8.77
2022-11-20T05:29:22.183Z,9.32
2022-11-20T05:31:55.017Z,8.50
2022-11-20T05:34:27.769Z,8.77
2022-11-20T05:37:00.554Z,9.65
2022-11-20T05:39:33.528Z,8.23
2022-11-20T05:44:58.118Z,8.27
2022-11-20T05:47:35.979Z,8.38
2022-11-20T05:50:09.297Z,8.55
2022-11-20T05:52:42.065Z,8.55
2022-11-20T05:55:14.984Z,9.95
2022-11-20T06:00:22.097Z,7.00
2022-11-20T06:02:56.027Z,8.82
2022-11-20T06:05:28.815Z,9.25
2022-11-20T06:08:02.643Z,8.50
2022-11-20T06:10:35.561Z,8.32
2022-11-20T06:13:08.508Z,8.38
2022-11-20T06:15:42.614Z,8.57
2022-11-20T06:18:15.570Z,8.45
2022-11-20T06:23:21.043Z,9.25
2022-11-20T06:25:53.771Z,9.38
2022-11-20T06:28:26.743Z,9.93
2022-11-20T06:33:34.646Z,9.13
2022-11-20T06:36:10.896Z,9.38
2022-11-20T06:38:44.901Z,9.07
2022-11-20T06:41:21.903Z,9.88
2022-11-20T06:43:54.873Z,8.73
2022-11-20T06:46:32.076Z,9.52
2022-11-20T06:49:05.804Z,9.35
2022-11-20T06:51:39.380Z,11.35
2022-11-20T06:54:12.469Z,9.50
2022-11-20T06:56:49.641Z,9.05
2022-11-20T06:59:22.882Z,9.00
2022-11-20T07:01:57.229Z,8.30
2022-11-20T07:04:30.329Z,10.23
2022-11-20T07:07:03.403Z,8.93
2022-11-20T07:09:37.593Z,10.18
2022-11-20T07:12:10.719Z,10.43
2022-11-20T07:14:46.371Z,8.93
2022-11-20T07:17:20.753Z,9.50
2022-11-20T07:19:53.727Z,10.23
2022-11-20T07:22:27.615Z,9.20
2022-11-20T07:25:00.897Z,9.25
2022-11-20T07:27:36.523Z,8.93
2022-11-20T07:30:10.291Z,10.02
2022-11-20T07:32:52.597Z,9.35
2022-11-20T07:35:26.082Z,9.40
2022-11-20T07:37:59.046Z,9.32
2022-11-20T07:43:04.886Z,9.25
2022-11-20T07:48:11.811Z,10.00
2022-11-20T07:50:45.838Z,10.35
2022-11-20T07:53:21.759Z,10.60
2022-11-20T07:55:54.695Z,10.38
2022-11-20T08:01:00.354Z,10.63
2022-11-20T08:03:39.343Z,11.23
2022-11-20T08:06:12.430Z,10.63
2022-11-20T08:08:45.269Z,10.50
2022-11-20T08:11:35.652Z,9.93
2022-11-20T08:14:14.217Z,11.05
2022-11-20T08:16:48.899Z,11.88
2022-11-20T08:19:23.292Z,10.45
2022-11-20T08:21:57.431Z,11.27
2022-11-20T08:24:30.459Z,11.30
2022-11-20T08:29:36.923Z,11.85
2022-11-20T08:32:12.453Z,10.52
2022-11-20T08:34:47.428Z,11.50
2022-11-20T08:37:20.594Z,11.95
2022-11-20T08:39:54.577Z,11.68
2022-11-20T08:42:27.421Z,11.00
2022-11-20T08:45:00.248Z,11.95
2022-11-20T08:50:11.082Z,11.77
2022-11-20T08:52:44.292Z,12.57
2022-11-20T08:55:19.795Z,12.13
2022-11-20T08:57:52.717Z,12.93
2022-11-20T09:00:25.627Z,13.10
2022-11-20T09:02:59.673Z,13.45
2022-11-20T09:05:34.415Z,12.35
2022-11-20T09:08:07.929Z,13.13
2022-11-20T09:10:41.662Z,13.35
2022-11-20T09:13:14.570Z,12.82
2022-11-20T09:18:20.613Z,15.38
2022-11-20T09:21:00.480Z,14.70
2022-11-20T09:23:38.147Z,14.20
2022-11-20T09:26:16.313Z,16.38
2022-11-20T09:28:55.372Z,15.38
2022-11-20T09:31:31.184Z,16.45
2022-11-20T09:34:05.073Z,15.57
2022-11-20T09:36:39.532Z,15.98
2022-11-20T09:39:14.394Z,18.35
2022-11-20T09:42:16.881Z,17.98
2022-11-20T09:45:12.628Z,18.17
2022-11-20T09:48:00.668Z,18.33
2022-11-20T09:50:38.642Z,19.65
2022-11-20T09:53:18.550Z,17.35
2022-11-20T09:55:51.746Z,17.92
2022-11-20T09:58:33.635Z,19.48
2022-11-20T10:01:14.108Z,20.35
2022-11-20T10:03:55.860Z,20.25
2022-11-20T10:06:33.159Z,20.10
2022-11-20T10:09:20.322Z,18.88
2022-11-20T10:12:07.875Z,20.98
2022-11-20T10:14:58.519Z,21.55
2022-11-20T10:17:56.779Z,20.95
2022-11-20T10:20:44.402Z,21.13
2022-11-20T10:23:38.951Z,20.30
2022-11-20T10:26:21.956Z,22.40
2022-11-20T10:29:11.215Z,21.27
2022-11-20T10:31:47.394Z,21.73
2022-11-20T10:34:26.602Z,20.75
2022-11-20T10:37:04.687Z,22.63
2022-11-20T10:39:44.429Z,22.02
2022-11-20T10:42:26.849Z,22.23
2022-11-20T10:45:13.398Z,23.40
2022-11-20T10:47:46.536Z,21.30
2022-11-20T10:50:24.201Z,23.60
2022-11-20T10:53:07.291Z,24.00
2022-11-20T10:55:45.727Z,21.88
2022-11-20T10:58:28.233Z,22.85
2022-11-20T11:01:06.280Z,22.48
2022-11-20T11:03:39.601Z,22.30
2022-11-20T11:06:19.445Z,24.20
2022-11-20T11:09:32.197Z,24.83
2022-11-20T11:12:09.763Z,22.50
2022-11-20T11:14:49.704Z,23.42
2022-11-20T11:17:29.349Z,23.80
2022-11-20T11:20:04.128Z,23.23
2022-11-20T11:22:46.963Z,26.00
2022-11-20T11:25:35.496Z,23.75
2022-11-20T11:28:23.057Z,25.35
2022-11-20T11:31:04.834Z,25.92
2022-11-20T11:33:40.263Z,26.08
2022-11-20T11:36:21.951Z,26.05
2022-11-20T11:38:55.687Z,26.75
2022-11-20T11:41:34.117Z,26.15
2022-11-20T11:44:37.366Z,26.23
2022-11-20T11:47:20.881Z,26.33
2022-11-20T11:50:03.436Z,25.42
2022-11-20T11:52:47.678Z,26.08
2022-11-20T11:55:31.282Z,27.02
2022-11-20T11:58:15.795Z,24.42
2022-11-20T12:00:56.972Z,24.55
2022-11-20T12:03:37.277Z,25.77
2022-11-20T12:06:14.725Z,27.05
2022-11-20T12:08:53.616Z,27.73
2022-11-20T12:11:35.237Z,26.42
2022-11-20T12:14:17.422Z,27.67
2022-11-20T12:16:50.534Z,28.77
2022-11-20T12:19:25.014Z,27.75
2022-11-20T12:22:06.432Z,27.88
2022-11-20T12:24:47.844Z,27.42
2022-11-20T12:27:46.202Z,29.40
2022-11-20T12:30:23.508Z,27.98
2022-11-20T12:33:28.090Z,28.58
2022-11-20T12:36:12.184Z,29.35
2022-11-20T12:38:56.928Z,29.02
2022-11-20T12:42:06.734Z,30.20
2022-11-20T12:45:10.273Z,27.40
2022-11-20T12:48:00.820Z,28.08
2022-11-20T12:51:13.444Z,29.30
2022-11-20T12:53:53.831Z,26.27
2022-11-20T12:56:35.389Z,28.33
2022-11-20T12:59:25.584Z,30.88
2022-11-20T13:02:05.186Z,27.48
2022-11-20T13:04:58.137Z,30.55
2022-11-20T13:07:32.610Z,29.38
2022-11-20T13:10:17.739Z,27.63
2022-11-20T13:12:58.191Z,29.73
2022-11-20T13:15:46.644Z,31.02
2022-11-20T13:18:22.936Z,29.77
2022-11-20T13:20:55.739Z,28.08
2022-11-20T13:23:30.072Z,31.10
2022-11-20T13:26:17.124Z,28.92
2022-11-20T13:29:02.144Z,27.83
2022-11-20T13:31:36.976Z,28.48
2022-11-20T13:34:14.414Z,30.00
2022-11-20T13:36:54.897Z,30.15
2022-11-20T13:39:29.526Z,27.63
2022-11-20T13:42:22.759Z,28.55
2022-11-20T13:44:57.293Z,28.48
2022-11-20T13:47:31.233Z,29.08
2022-11-20T13:50:06.564Z,30.27
2022-11-20T13:52:48.691Z,29.70
2022-11-20T13:55:28.500Z,29.85
2022-11-20T13:58:21.471Z,28.90
2022-11-20T14:01:02.944Z,29.38
2022-11-20T14:04:05.709Z,28.15
2022-11-20T14:09:03.342Z,32.05
2022-11-20T14:11:36.208Z,29.63
2022-11-20T14:14:18.485Z,28.25
2022-11-20T14:16:51.954Z,30.20
2022-11-20T14:19:31.360Z,25.90
2022-11-20T14:22:22.152Z,28.58
2022-11-20T14:25:08.314Z,29.83
2022-11-20T14:27:42.975Z,27.27
2022-11-20T14:30:20.398Z,29.13
2022-11-20T14:32:56.521Z,28.30
2022-11-20T14:35:31.753Z,29.58
2022-11-20T14:38:05.406Z,27.65
2022-11-20T14:40:38.511Z,28.67
2022-11-20T14:43:20.682Z,27.23
2022-11-20T14:46:03.230Z,29.08
2022-11-20T14:48:41.376Z,30.60
2022-11-20T14:51:24.992Z,26.58
2022-11-20T14:53:58.004Z,30.38
2022-11-20T14:59:03.767Z,25.17
2022-11-20T15:04:12.711Z,26.27
2022-11-20T15:06:52.322Z,27.33
2022-11-20T15:09:25.393Z,28.15
2022-11-20T15:14:34.977Z,29.08
2022-11-20T15:17:13.648Z,26.88
2022-11-20T15:19:46.723Z,23.15
2022-11-20T15:24:53.963Z,23.00
2022-11-20T15:27:26.775Z,23.83
2022-11-20T15:29:59.623Z,24.88
2022-11-20T15:32:33.884Z,23.42
2022-11-20T15:35:07.599Z,25.73
2022-11-20T15:37:41.097Z,24.67
2022-11-20T15:40:14.213Z,23.90
2022-11-20T15:43:00.841Z,23.98
2022-11-20T15:45:40.031Z,24.70
2022-11-20T15:48:18.431Z,21.83
2022-11-20T15:50:58.396Z,22.45
2022-11-20T15:53:31.791Z,23.92
2022-11-20T15:56:04.834Z,24.50
2022-11-20T16:01:12.674Z,24.10
2022-11-20T16:03:49.283Z,22.63
2022-11-20T16:06:22.198Z,22.23
2022-11-20T16:11:30.064Z,22.30
2022-11-20T16:14:22.862Z,21.85
2022-11-20T16:16:55.941Z,21.70
2022-11-20T16:19:30.021Z,22.45
2022-11-20T16:22:03.398Z,22.75
2022-11-20T16:24:36.518Z,22.35
2022-11-20T16:27:13.240Z,21.50
2022-11-20T16:29:46.699Z,23.75
2022-11-20T16:32:19.814Z,19.83
2022-11-20T16:34:54.489Z,23.60
2022-11-20T16:37:30.223Z,22.50
2022-11-20T16:40:12.202Z,20.85
2022-11-20T16:42:45.594Z,21.02
2022-11-20T16:45:25.301Z,20.70
2022-11-20T16:47:59.966Z,21.45
2022-11-20T16:50:34.446Z,22.10
2022-11-20T16:53:09.020Z,21.33
2022-11-20T16:55:44.375Z,20.90
2022-11-20T16:58:17.864Z,21.38
2022-11-20T17:00:51.966Z,20.27
2022-11-20T17:03:24.894Z,22.10
2022-11-20T17:05:59.334Z,19.70
2022-11-20T17:08:36.205Z,21.20
2022-11-20T17:11:10.649Z,20.40
2022-11-20T17:13:45.138Z,19.45
2022-11-20T17:16:20.551Z,19.98
2022-11-20T17:18:59.751Z,18.48
2022-11-20T17:21:41.340Z,19.70
2022-11-20T17:24:18.211Z,18.52
2022-11-20T17:26:51.346Z,20.00
2022-11-20T17:29:28.043Z,19.75
2022-11-20T17:32:01.273Z,18.73
2022-11-20T17:37:11.206Z,18.20
2022-11-20T17:39:44.867Z,18.95
2022-11-20T17:42:36.646Z,18.52
2022-11-20T17:45:09.861Z,17.65
2022-11-20T17:47:44.980Z,17.08
2022-11-20T17:50:22.466Z,17.27
2022-11-20T17:53:14.794Z,18.48
2022-11-20T17:56:13.772Z,17.52
2022-11-20T17:58:46.997Z,18.55
2022-11-20T18:01:20.933Z,16.80
2022-11-20T18:03:56.717Z,16.67
2022-11-20T18:06:35.609Z,16.25
2022-11-20T18:09:10.502Z,16.83
2022-11-20T18:11:44.745Z,17.40
2022-11-20T18:14:32.452Z,17.10
2022-11-20T18:17:07.029Z,17.63
2022-11-20T18:19:51.544Z,16.73
2022-11-20T18:22:34.082Z,18.17
2022-11-20T18:25:09.422Z,17.35
2022-11-20T18:27:46.910Z,15.95
2022-11-20T18:30:29.259Z,17.05
2022-11-20T18:33:05.472Z,16.97
2022-11-20T18:35:43.315Z,15.32
2022-11-20T18:38:19.082Z,16.60
2022-11-20T18:40:59.623Z,16.25
2022-11-20T18:43:58.331Z,16.48
2022-11-20T18:46:31.478Z,17.65
2022-11-20T18:51:39.016Z,14.68
2022-11-20T18:54:12.904Z,14.93
2022-11-20T18:56:50.966Z,15.70
2022-11-20T18:59:23.968Z,15.13
2022-11-20T19:04:30.465Z,16.55
2022-11-20T19:07:03.611Z,16.70
2022-11-20T19:09:37.877Z,16.58
2022-11-20T19:12:13.557Z,16.05
2022-11-20T19:14:49.710Z,15.70
2022-11-20T19:17:24.593Z,17.33
2022-11-20T19:19:57.774Z,14.75
2022-11-20T19:25:08.493Z,12.68
2022-11-20T19:27:42.795Z,12.15
2022-11-20T19:30:20.614Z,10.60
2022-11-20T19:33:08.652Z,11.43
2022-11-20T19:35:42.421Z,9.52
2022-11-20T19:38:19.890Z,8.88
2022-11-20T19:40:53.151Z,8.60
2022-11-20T19:43:27.583Z,7.43
2022-11-20T19:46:00.858Z,6.35
2022-11-20T19:48:35.070Z,5.78
2022-11-20T19:51:13.895Z,6.53
2022-11-20T19:53:47.252Z,6.07
2022-11-20T19:56:23.567Z,5.22
2022-11-20T19:59:03.015Z,5.45
2022-11-20T20:01:40.596Z,4.32
2022-11-20T20:04:13.998Z,4.85
2022-11-20T20:06:47.348Z,4.50
2022-11-20T20:09:22.969Z,4.47
2022-11-20T20:12:00.687Z,4.30
2022-11-20T20:14:39.629Z,4.57
2022-11-20T20:17:14.080Z,4.45
2022-11-20T20:19:47.584Z,4.28
2022-11-20T20:22:25.965Z,3.80
2022-11-20T20:25:15.477Z,3.85
2022-11-20T20:27:51.046Z,3.22
2022-11-20T20:30:25.535Z,4.10
2022-11-20T20:32:58.722Z,3.92
2022-11-20T20:35:31.735Z,4.47
2022-11-20T20:40:38.469Z,3.35
2022-11-20T20:43:17.234Z,4.28
2022-11-20T20:45:52.562Z,3.40
2022-11-20T20:48:30.063Z,4.38
2022-11-20T20:51:03.666Z,3.92
2022-11-20T20:53:40.560Z,3.70
2022-11-20T20:56:13.713Z,3.97
2022-11-20T20:58:48.796Z,3.72
2022-11-20T21:01:28.536Z,4.10
2022-11-20T21:04:04.240Z,3.38
2022-11-20T21:06:37.204Z,3.63
2022-11-20T21:11:43.023Z,4.22
2022-11-20T21:14:16.523Z,3.47
2022-11-20T21:16:50.638Z,4.53
2022-11-20T21:19:23.480Z,3.63
2022-11-20T21:22:03.159Z,3.80
2022-11-20T21:24:37.410Z,3.88
2022-11-20T21:27:10.471Z,3.92
2022-11-20T21:32:17.395Z,3.83
2022-11-20T21:34:50.186Z,4.20
2022-11-20T21:37:22.781Z,4.75
2022-11-20T21:39:56.405Z,3.92
2022-11-20T21:42:29.315Z,3.97
2022-11-20T21:45:02.056Z,3.83
2022-11-20T21:47:36.094Z,4.00
2022-11-20T21:50:10.567Z,3.45
2022-11-20T21:52:43.324Z,3.17
2022-11-20T21:55:16.000Z,3.53
2022-11-20T21:57:48.756Z,3.42
2022-11-20T22:00:21.740Z,3.58
2022-11-20T22:05:28.324Z,3.58
2022-11-20T22:08:01.079Z,4.15
2022-11-20T22:10:34.396Z,3.35
2022-11-20T22:13:24.460Z,4.15
2022-11-20T22:16:02.352Z,2.92
2022-11-20T22:18:36.732Z,2.97
2022-11-20T22:21:09.609Z,2.63
2022-11-20T22:23:42.635Z,2.60
2022-11-20T22:28:49.604Z,2.17
2022-11-20T22:31:24.143Z,2.30
2022-11-20T22:33:59.979Z,2.10
2022-11-20T22:36:33.567Z,2.75
2022-11-20T22:39:07.393Z,1.98
2022-11-20T22:41:40.165Z,2.95
2022-11-20T22:44:14.323Z,2.33
2022-11-20T22:46:47.256Z,2.58
2022-11-20T22:49:21.570Z,2.17
2022-11-20T22:51:55.536Z,2.33
2022-11-20T22:54:28.350Z,2.65
2022-11-20T22:57:01.205Z,2.42
2022-11-20T22:59:33.869Z,5.00
2022-11-20T23:02:06.841Z,2.35
2022-11-20T23:04:40.923Z,2.47
2022-11-20T23:07:13.743Z,1.65
2022-11-20T23:09:46.478Z,3.08
2022-11-20T23:12:19.206Z,3.10
2022-11-20T23:14:51.812Z,2.50
2022-11-20T23:17:24.605Z,2.67
2022-11-20T23:19:58.670Z,2.35
2022-11-20T23:22:33.098Z,1.50
2022-11-20T23:25:06.804Z,2.45
2022-11-20T23:27:39.550Z,1.90
2022-11-20T23:30:13.236Z,2.63
2022-11-20T23:32:46.064Z,2.50
2022-11-20T23:35:20.047Z,2.53
2022-11-20T23:37:52.963Z,2.78
2022-11-20T23:40:25.753Z,3.63
2022-11-20T23:43:17.175Z,4.25
2022-11-20T23:45:51.427Z,4.45
2022-11-20T23:48:25.966Z,5.30
2022-11-20T23:51:00.470Z,5.32
2022-11-20T23:53:33.656Z,5.60
2022-11-20T23:56:06.899Z,6.15
2022-11-20T23:58:40.067Z,7.50
